Time;durP1;ratioP1;P1;durP2;ratioP2;P2;SDS_P1;SDS_P2;PMS_P1;PMS_P2;Temp;Humidity;BMP_temperature;BMP_pressure;BME280_temperature;BME280_humidity;BME280_pressure;Samples;Min_cycle;Max_cycle;Signal;HPM_P1;HPM_P2
2021/07/14 00:01:16;;;;;;;10.05;8.10;;;;;;;22.23;72.05;99589.47;130471;1086;22525;-59
2021/07/14 00:03:46;;;;;;;9.30;8.30;;;;;;;22.23;72.07;99595.84;130402;1087;113966;-59
2021/07/14 00:06:36;;;;;;;9.28;8.25;;;;;;;22.22;71.94;99593.39;130496;1087;22530;-59
2021/07/14 00:09:07;;;;;;;10.18;8.80;;;;;;;22.23;72.09;99587.52;130373;1087;113887;-60
2021/07/14 00:11:58;;;;;;;10.38;9.35;;;;;;;22.23;72.31;99590.28;130453;1087;22538;-59
2021/07/14 00:23:15;;;;;;;9.03;8.13;;;;;;;22.11;72.71;99584.63;130550;1087;22536;-60
2021/07/14 00:25:44;;;;;;;9.45;8.55;;;;;;;22.05;72.45;99585.98;130445;1087;22599;-59
2021/07/14 00:28:15;;;;;;;13.38;9.38;;;;;;;22.00;72.41;99582.56;130385;1087;113594;-59
2021/07/14 00:30:49;;;;;;;10.78;9.40;;;;;;;21.95;72.61;99591.02;130490;1085;22531;-59
2021/07/14 00:33:18;;;;;;;14.48;8.80;;;;;;;21.88;72.76;99595.14;130357;1087;113968;-60
2021/07/14 00:35:46;;;;;;;13.28;9.85;;;;;;;21.84;73.01;99598.90;130474;1087;22530;-59
2021/07/14 00:38:24;;;;;;;10.80;8.90;;;;;;;21.80;73.28;99589.60;130387;1087;114414;-59
2021/07/14 00:40:53;;;;;;;9.40;8.25;;;;;;;21.76;73.44;99595.02;130460;1087;22732;-60
2021/07/14 00:43:22;;;;;;;13.15;9.63;;;;;;;21.72;73.63;99594.05;130480;1086;22560;-60
2021/07/14 00:45:51;;;;;;;13.40;9.98;;;;;;;21.69;73.39;99602.20;130391;1089;113941;-58
2021/07/14 00:48:25;;;;;;;16.00;9.93;;;;;;;21.65;73.47;99596.48;130503;1085;22551;-59
2021/07/14 00:50:54;;;;;;;12.95;9.33;;;;;;;21.62;73.57;99597.17;130378;1087;113759;-59
2021/07/14 00:54:22;;;;;;;12.00;10.38;;;;;;;21.58;73.59;99595.38;125554;1091;28389;-57
2021/07/14 00:56:52;;;;;;;15.05;9.63;;;;;;;21.54;73.73;99597.98;125196;1092;114759;-60
2021/07/14 00:59:22;;;;;;;13.85;10.18;;;;;;;21.51;73.58;99596.68;125256;1093;22893;-59
2021/07/14 01:01:51;;;;;;;17.75;10.98;;;;;;;21.46;73.82;99610.73;129861;1093;22663;-58
2021/07/14 01:04:26;;;;;;;14.58;10.80;;;;;;;21.42;73.69;99604.20;129886;1092;113785;-59
2021/07/14 01:07:08;;;;;;;13.15;11.48;;;;;;;21.39;74.21;99606.81;129987;1093;22549;-58
2021/07/14 01:09:53;;;;;;;15.30;11.60;;;;;;;21.36;74.42;99596.38;129691;1093;113755;-59
2021/07/14 01:12:27;;;;;;;15.35;9.85;;;;;;;21.33;74.37;99599.83;129902;1093;22653;-58
2021/07/14 01:15:24;;;;;;;15.13;11.55;;;;;;;21.28;74.54;99598.02;129735;1093;113690;-58
2021/07/14 01:17:58;;;;;;;14.65;10.53;;;;;;;21.24;74.80;99597.03;130024;1093;22694;-58
2021/07/14 01:20:42;;;;;;;15.80;10.50;;;;;;;21.20;74.83;99596.08;129756;1093;113572;-58
2021/07/14 01:23:18;;;;;;;17.98;10.93;;;;;;;21.15;74.96;99591.48;129757;1093;22581;-58
2021/07/14 01:26:07;;;;;;;15.48;10.33;;;;;;;21.10;75.27;99593.59;129853;1093;22639;-58
2021/07/14 01:28:37;;;;;;;14.38;10.73;;;;;;;21.04;75.31;99586.59;129699;1093;113740;-58
2021/07/14 01:31:06;;;;;;;16.03;11.73;;;;;;;21.00;75.54;99597.50;129994;1093;22559;-58
2021/07/14 01:33:37;;;;;;;14.10;11.33;;;;;;;20.97;75.70;99587.06;129694;1093;114147;-58
2021/07/14 01:36:16;;;;;;;13.03;10.78;;;;;;;20.96;76.00;99587.39;129979;1093;22652;-58
2021/07/14 01:38:46;;;;;;;13.25;10.93;;;;;;;20.92;75.78;99587.22;129797;1093;114024;-58
2021/07/14 01:41:17;;;;;;;15.68;11.93;;;;;;;20.90;76.01;99594.25;129794;1092;23634;-58
2021/07/14 01:43:49;;;;;;;12.43;11.03;;;;;;;20.87;76.16;99595.70;129780;1093;23462;-59
2021/07/14 01:46:18;;;;;;;14.98;10.98;;;;;;;20.85;76.26;99597.16;129735;1093;115091;-58
2021/07/14 01:48:47;;;;;;;15.90;11.33;;;;;;;20.82;76.44;99599.44;129730;1093;22582;-58
2021/07/14 01:51:16;;;;;;;11.75;10.45;;;;;;;20.80;76.47;99595.36;129686;1093;114052;-58
2021/07/14 01:53:45;;;;;;;18.05;11.38;;;;;;;20.77;76.59;99596.03;129754;1093;22649;-58
2021/07/14 01:56:15;;;;;;;14.40;12.03;;;;;;;20.73;76.46;99606.11;129828;1092;22573;-57
2021/07/14 01:58:44;;;;;;;17.33;12.33;;;;;;;20.70;76.73;99603.98;129687;1093;113867;-58
2021/07/14 02:01:14;;;;;;;16.13;11.98;;;;;;;20.67;76.63;99599.08;129734;1093;22594;-60
2021/07/14 02:03:56;;;;;;;14.25;11.08;;;;;;;20.64;76.78;99606.08;129687;1093;114009;-61
2021/07/14 02:06:26;;;;;;;12.63;11.20;;;;;;;20.61;76.90;99598.44;129765;1093;23093;-61
2021/07/14 02:09:15;;;;;;;16.30;12.17;;;;;;;20.59;77.19;99603.48;129669;1093;113826;-61
2021/07/14 02:11:45;;;;;;;13.48;11.35;;;;;;;20.57;76.88;99600.22;129715;1095;22590;-61
2021/07/14 02:14:20;;;;;;;13.78;12.30;;;;;;;20.56;77.10;99603.30;129769;1095;22576;-61
2021/07/14 02:17:13;;;;;;;13.10;11.70;;;;;;;20.53;77.05;99598.40;129515;1096;22699;-61
2021/07/14 02:20:01;;;;;;;15.90;12.15;;;;;;;20.51;77.07;99604.26;129713;1095;22558;-60
2021/07/14 02:22:30;;;;;;;12.30;10.55;;;;;;;20.49;77.34;99611.28;129632;1095;114376;-60
2021/07/14 02:24:59;;;;;;;14.78;11.53;;;;;;;20.49;77.57;99609.30;129706;1095;22580;-60
2021/07/14 02:27:46;;;;;;;20.98;12.40;;;;;;;20.49;77.73;99602.97;129630;1096;114366;-60
2021/07/14 02:30:21;;;;;;;14.25;12.43;;;;;;;20.48;77.63;99602.16;129744;1096;22546;-60
2021/07/14 02:32:50;;;;;;;15.13;11.80;;;;;;;20.48;77.53;99615.18;129669;1096;116162;-60
2021/07/14 02:35:19;;;;;;;12.90;11.33;;;;;;;20.49;77.87;99602.97;129704;1093;22552;-60
2021/07/14 02:38:12;;;;;;;14.95;12.30;;;;;;;20.50;77.84;99613.70;129762;1096;23641;-60
2021/07/14 02:40:46;;;;;;;18.35;12.30;;;;;;;20.52;77.84;99611.42;129638;1095;114083;-60
2021/07/14 02:43:14;;;;;;;15.85;12.95;;;;;;;20.53;78.00;99610.29;129791;1093;23062;-60
2021/07/14 02:45:45;;;;;;;16.53;11.93;;;;;;;20.55;78.22;99615.51;129625;1093;113792;-60
2021/07/14 02:48:27;;;;;;;14.13;12.25;;;;;;;20.57;78.41;99622.36;129811;1092;23456;-61
2021/07/14 02:50:57;;;;;;;15.78;12.08;;;;;;;20.59;78.39;99622.04;129656;1092;114307;-61
2021/07/14 02:53:27;;;;;;;14.00;11.70;;;;;;;20.64;78.52;99628.23;129771;1093;22595;-60
2021/07/14 02:56:00;;;;;;;17.35;11.88;;;;;;;20.67;78.41;99624.81;129815;1093;22554;-61
2021/07/14 02:58:32;;;;;;;15.93;12.17;;;;;;;20.72;78.82;99629.40;129689;1093;113990;-61
2021/07/14 03:01:01;;;;;;;17.90;12.18;;;;;;;20.77;78.71;99624.53;129786;1092;22533;-61
2021/07/14 03:03:30;;;;;;;15.10;11.98;;;;;;;20.81;78.72;99633.80;129661;1093;114141;-57
2021/07/14 03:06:03;;;;;;;14.48;12.85;;;;;;;20.88;78.89;99632.53;129804;1093;22565;-57
2021/07/14 03:08:32;;;;;;;13.33;11.85;;;;;;;20.95;78.64;99624.53;129786;1093;22544;-58
2021/07/14 03:11:01;;;;;;;17.78;13.00;;;;;;;21.00;78.66;99633.52;129674;1093;113990;-60
2021/07/14 03:13:31;;;;;;;19.43;13.98;;;;;;;21.08;78.85;99627.16;129777;1092;22599;-60
2021/07/14 03:16:00;;;;;;;23.45;13.30;;;;;;;21.15;78.88;99635.00;129640;1093;114215;-60
2021/07/14 03:18:31;;;;;;;14.80;13.28;;;;;;;21.22;78.71;99638.11;129752;1093;22532;-58
2021/07/14 03:21:04;;;;;;;15.00;12.63;;;;;;;21.30;78.60;99640.09;129693;1093;114588;-58
2021/07/14 03:23:54;;;;;;;21.60;13.75;;;;;;;21.41;78.54;99640.56;129747;1093;22554;-58
2021/07/14 03:26:23;;;;;;;20.20;12.55;;;;;;;21.48;78.28;99638.13;129814;1092;23144;-60
2021/07/14 03:28:53;;;;;;;22.00;15.13;;;;;;;21.57;78.54;99627.02;129676;1093;114150;-61
2021/07/14 03:31:26;;;;;;;18.35;13.23;;;;;;;21.66;78.12;99628.63;129770;1093;22584;-60
2021/07/14 03:33:55;;;;;;;21.45;13.98;;;;;;;21.76;78.05;99631.08;129671;1093;114777;-58
2021/07/14 03:36:23;;;;;;;21.10;12.95;;;;;;;21.85;77.45;99619.95;129835;1093;22557;-58
2021/07/14 03:38:54;;;;;;;17.60;12.50;;;;;;;21.94;77.10;99633.78;129631;1093;114083;-61
2021/07/14 03:41:23;;;;;;;18.10;12.20;;;;;;;22.05;76.69;99627.60;129817;1093;22583;-60
2021/07/14 03:43:52;;;;;;;18.45;12.45;;;;;;;22.16;76.65;99634.41;129739;1093;23206;-61
2021/07/14 03:46:21;;;;;;;17.50;11.98;;;;;;;22.27;76.40;99632.08;129649;1093;114305;-58
2021/07/14 03:48:52;;;;;;;21.75;12.48;;;;;;;22.37;75.92;99628.92;129692;1093;22561;-58
2021/07/14 03:51:22;;;;;;;15.98;11.30;;;;;;;22.47;75.67;99636.08;129727;1093;114181;-61
2021/07/14 03:53:51;;;;;;;16.55;12.20;;;;;;;22.56;75.22;99634.88;129741;1093;22583;-60
2021/07/14 03:56:23;;;;;;;17.55;12.60;;;;;;;;;;129833;1092;22571;-60
2021/07/14 03:58:53;;;;;;;17.18;12.08;;;;;;;22.76;74.64;99638.89;129669;1092;87423;-60
2021/07/14 04:01:22;;;;;;;16.20;11.83;;;;;;;22.84;74.25;99632.45;129821;1093;22644;-61
2021/07/14 04:03:52;;;;;;;24.95;14.85;;;;;;;22.93;73.86;99637.98;129702;1093;114020;-58
2021/07/14 04:06:21;;;;;;;35.23;13.48;;;;;;;23.03;73.74;99639.53;129751;1093;22589;-61
2021/07/14 04:09:18;;;;;;;51.08;15.45;;;;;;;23.12;73.59;99632.75;129641;1093;114119;-61
2021/07/14 04:12:07;;;;;;;25.50;13.03;;;;;;;23.25;73.21;99637.22;129792;1093;23783;-60
2021/07/14 04:14:36;;;;;;;18.30;13.03;;;;;;;23.35;73.07;99627.67;129842;1093;23104;-61
2021/07/14 04:17:05;;;;;;;21.35;11.63;;;;;;;23.46;72.92;99640.00;129699;1093;114747;-61
2021/07/14 04:19:35;;;;;;;24.43;13.40;;;;;;;23.56;72.27;99639.61;129754;1093;22552;-61
2021/07/14 04:22:05;;;;;;;15.30;12.23;;;;;;;23.66;71.75;99643.92;129724;1092;114051;-61
2021/07/14 04:24:34;;;;;;;31.38;13.80;;;;;;;23.74;71.45;99643.04;129813;1093;22618;-61
2021/07/14 04:27:03;;;;;;;19.83;11.10;;;;;;;23.85;70.88;99644.23;129723;1092;114016;-58
2021/07/14 04:29:32;;;;;;;18.48;12.60;;;;;;;23.93;70.30;99643.34;129806;1093;22579;-58
2021/07/14 04:32:01;;;;;;;23.55;12.98;;;;;;;24.01;70.13;99641.61;129790;1093;23139;-58
2021/07/14 04:34:30;;;;;;;95.92;20.83;;;;;;;24.10;69.87;99647.88;129685;1092;113989;-58
2021/07/14 04:37:19;;;;;;;27.93;14.28;;;;;;;24.18;69.96;99646.17;129821;1091;22643;-58
2021/07/14 04:39:48;;;;;;;26.63;13.40;;;;;;;24.24;70.18;99644.80;128454;1093;114215;-59
2021/07/14 04:42:17;;;;;;;23.05;12.93;;;;;;;24.31;69.35;99643.09;125180;1092;22793;-60
2021/07/14 04:44:51;;;;;;;19.00;12.65;;;;;;;24.39;69.23;99644.13;129802;1093;23162;-60
2021/07/14 04:47:19;;;;;;;17.40;11.30;;;;;;;24.45;69.00;99642.75;129677;1092;113743;-61
2021/07/14 04:49:49;;;;;;;24.58;11.60;;;;;;;24.52;68.58;99644.97;129821;1093;23500;-61
2021/07/14 04:52:18;;;;;;;15.43;10.98;;;;;;;24.58;68.40;99644.38;129710;1093;113928;-60
2021/07/14 04:54:47;;;;;;;16.30;11.40;;;;;;;24.64;67.89;99647.75;129850;1092;23142;-58
2021/07/14 04:57:16;;;;;;;15.93;11.23;;;;;;;24.70;68.12;99648.31;129719;1093;114209;-58
2021/07/14 04:59:45;;;;;;;17.98;11.45;;;;;;;24.75;67.44;99642.52;129815;1092;22507;-58
2021/07/14 05:02:14;;;;;;;20.43;11.25;;;;;;;24.81;67.04;99643.91;129768;1093;23576;-58
2021/07/14 05:04:43;;;;;;;15.35;11.40;;;;;;;24.89;67.63;99642.97;129689;1093;114374;-58
2021/07/14 05:07:12;;;;;;;17.68;11.93;;;;;;;25.01;67.96;99645.76;129782;1092;22690;-57
2021/07/14 05:09:41;;;;;;;19.90;12.13;;;;;;;25.12;67.33;99646.89;129744;1093;114138;-58
2021/07/14 05:12:10;;;;;;;17.05;9.90;;;;;;;25.24;66.90;99649.67;129837;1093;23358;-58
2021/07/14 05:14:39;;;;;;;15.80;9.03;;;;;;;25.39;65.39;99656.50;129829;1093;22574;-58
2021/07/14 05:17:08;;;;;;;17.75;9.68;;;;;;;25.54;64.51;99658.51;129683;1093;114328;-59
2021/07/14 05:19:56;;;;;;;17.13;10.78;;;;;;;25.79;64.14;99656.48;129802;1093;22519;-59
2021/07/14 05:22:32;;;;;;;17.13;11.07;;;;;;;26.08;62.82;99655.27;129700;1092;114180;-59
2021/07/14 05:25:01;;;;;;;22.40;9.65;;;;;;;26.43;62.83;99657.38;129796;1092;22553;-61
2021/07/14 05:27:29;;;;;;;13.88;8.15;;;;;;;26.79;61.49;99657.10;129720;1093;114156;-59
2021/07/14 05:30:05;;;;;;;24.60;8.88;;;;;;;27.21;60.26;99651.70;129816;1093;22549;-60
2021/07/14 05:32:34;;;;;;;14.18;8.28;;;;;;;27.65;58.82;99651.47;129792;1093;22553;-60
2021/07/14 05:35:05;;;;;;;17.28;8.78;;;;;;;28.09;57.34;99651.92;129745;1092;114229;-60
2021/07/14 05:37:33;;;;;;;13.30;7.33;;;;;;;28.56;55.64;99645.17;129805;1093;22567;-59
2021/07/14 05:40:04;;;;;;;20.93;7.53;;;;;;;28.99;54.81;99647.48;129701;1093;113990;-60
2021/07/14 05:42:32;;;;;;;11.68;6.78;;;;;;;29.41;53.25;99641.69;129807;1092;22566;-60
2021/07/14 05:45:02;;;;;;;12.70;6.43;;;;;;;29.79;52.00;99634.91;129733;1093;114090;-59
2021/07/14 05:47:32;;;;;;;10.68;6.08;;;;;;;30.18;51.02;99645.77;129806;1092;22607;-59
2021/07/14 05:50:03;;;;;;;10.63;6.30;;;;;;;30.49;49.09;99645.27;129831;1092;22564;-59
2021/07/14 05:52:32;;;;;;;12.60;6.28;;;;;;;30.73;48.22;99645.91;129778;1092;114556;-60
2021/07/14 05:55:01;;;;;;;12.90;6.95;;;;;;;30.97;48.47;99641.64;129817;1093;22537;-60
2021/07/14 05:57:30;;;;;;;20.73;7.13;;;;;;;31.18;47.97;99639.77;129862;1093;114550;-60
2021/07/14 05:59:59;;;;;;;13.95;6.25;;;;;;;31.38;46.54;99642.30;129764;1093;22521;-60
2021/07/14 06:02:28;;;;;;;18.83;7.20;;;;;;;31.49;45.86;99637.52;129985;1092;22603;-59
2021/07/14 06:04:57;;;;;;;29.70;6.95;;;;;;;31.53;46.33;99639.16;129934;1092;114286;-58
2021/07/14 06:07:29;;;;;;;17.33;7.05;;;;;;;31.63;45.82;99640.39;129992;1093;23175;-58
2021/07/14 06:09:58;;;;;;;9.88;5.88;;;;;;;31.76;45.87;99641.67;129931;1093;113976;-59
2021/07/14 06:12:27;;;;;;;9.50;6.05;;;;;;;31.90;44.50;99647.34;130023;1092;22528;-58
2021/07/14 06:14:57;;;;;;;7.70;5.45;;;;;;;31.95;43.24;99643.34;129751;1093;22590;-59
2021/07/14 06:17:26;;;;;;;10.88;5.60;;;;;;;31.94;43.57;99638.91;129936;1093;113562;-59
2021/07/14 06:20:01;;;;;;;9.08;6.60;;;;;;;31.82;43.00;99642.91;130016;1093;22583;-59
2021/07/14 06:22:30;;;;;;;11.13;6.38;;;;;;;31.68;42.87;99634.41;129875;1093;114210;-59
2021/07/14 06:25:03;;;;;;;9.65;6.03;;;;;;;31.54;43.31;99639.96;129860;1093;23636;-59
2021/07/14 06:27:42;;;;;;;10.78;6.65;;;;;;;31.36;43.70;99644.70;129880;1093;114132;-59
2021/07/14 06:30:13;;;;;;;11.60;6.48;;;;;;;31.19;43.66;99647.02;129952;1093;22634;-60
2021/07/14 06:32:42;;;;;;;13.83;6.58;;;;;;;31.03;44.39;99635.23;129939;1092;22559;-59
2021/07/14 06:35:11;;;;;;;116.35;14.13;;;;;;;30.86;44.79;99633.94;129812;1093;114157;-59
2021/07/14 06:37:40;;;;;;;20.52;6.93;;;;;;;30.66;45.32;99641.02;129793;1093;22748;-59
2021/07/14 06:40:11;;;;;;;10.13;6.73;;;;;;;30.50;45.58;99641.26;129743;1093;114680;-59
2021/07/14 06:42:41;;;;;;;16.25;6.90;;;;;;;30.39;46.57;99648.80;129824;1093;22577;-58
2021/07/14 06:45:10;;;;;;;12.15;6.98;;;;;;;30.33;46.96;99641.91;129835;1093;114067;-58
2021/07/14 06:47:40;;;;;;;9.70;6.93;;;;;;;30.27;46.87;99643.47;129727;1093;22522;-58
2021/07/14 06:50:11;;;;;;;15.78;7.18;;;;;;;30.22;46.42;99652.25;129750;1092;22556;-58
2021/07/14 06:52:41;;;;;;;10.68;6.95;;;;;;;30.17;46.42;99646.97;129802;1093;114698;-58
2021/07/14 06:55:10;;;;;;;10.75;6.23;;;;;;;30.16;46.30;99645.34;129846;1093;22532;-58
2021/07/14 06:57:40;;;;;;;7.53;6.25;;;;;;;30.13;45.99;99644.14;129917;1093;114036;-58
2021/07/14 07:00:10;;;;;;;10.35;6.08;;;;;;;30.10;45.95;99639.29;130099;1092;22551;-58
2021/07/14 07:02:39;;;;;;;11.05;6.05;;;;;;;30.07;45.97;99642.06;129762;1093;22996;-58
2021/07/14 07:05:08;;;;;;;13.98;7.35;;;;;;;30.07;46.36;99637.24;129715;1093;114098;-58
2021/07/14 07:07:38;;;;;;;15.75;6.85;;;;;;;30.08;46.43;99640.86;130028;1092;23102;-58
2021/07/14 07:10:07;;;;;;;8.65;5.80;;;;;;;30.07;46.19;99634.44;129711;1092;113965;-58
2021/07/14 07:12:37;;;;;;;14.13;6.40;;;;;;;30.07;45.89;99642.06;130026;1092;23809;-58
2021/07/14 07:15:11;;;;;;;6.93;5.88;;;;;;;30.07;45.65;99647.67;129921;1093;113943;-58
2021/07/14 07:17:47;;;;;;;13.60;6.43;;;;;;;30.03;44.75;99629.96;130033;1093;22541;-58
2021/07/14 07:20:17;;;;;;;8.95;6.10;;;;;;;29.95;45.27;99623.45;130006;1093;22535;-58
2021/07/14 07:22:46;;;;;;;6.93;6.23;;;;;;;29.97;46.47;99637.14;129703;1093;113855;-58
2021/07/14 07:25:15;;;;;;;6.18;5.55;;;;;;;29.96;45.41;99641.92;130040;1093;22549;-57
2021/07/14 07:27:44;;;;;;;10.20;6.00;;;;;;;29.95;45.54;99640.30;129894;1093;114822;-58
2021/07/14 07:30:13;;;;;;;11.55;6.55;;;;;;;29.97;44.95;99637.14;130030;1092;22531;-58
2021/07/14 07:32:42;;;;;;;18.53;7.05;;;;;;;29.98;45.99;99644.38;130016;1093;22571;-58
2021/07/14 07:35:12;;;;;;;8.68;6.35;;;;;;;29.97;46.30;99640.77;129692;1093;114239;-58
2021/07/14 07:37:41;;;;;;;10.33;5.83;;;;;;;29.93;46.07;99636.25;130030;1093;23076;-58
2021/07/14 07:40:10;;;;;;;10.18;6.55;;;;;;;29.91;46.96;99642.26;129973;1092;113806;-59
2021/07/14 07:42:43;;;;;;;9.15;5.80;;;;;;;29.93;47.75;99647.50;129897;1093;22661;-59
2021/07/14 07:45:12;;;;;;;7.38;4.65;;;;;;;29.95;46.09;99640.30;129986;1093;113860;-59
2021/07/14 07:47:41;;;;;;;6.65;4.78;;;;;;;29.96;45.53;99638.30;129942;1093;22588;-59
2021/07/14 07:50:17;;;;;;;5.80;5.13;;;;;;;29.97;45.78;99639.95;129820;1093;22535;-59
2021/07/14 07:52:46;;;;;;;5.80;5.20;;;;;;;29.98;47.05;99641.57;129890;1093;113761;-59
2021/07/14 07:55:16;;;;;;;8.65;6.48;;;;;;;29.96;47.09;99635.49;129826;1092;23477;-59
2021/07/14 07:57:45;;;;;;;15.10;6.68;;;;;;;30.04;47.16;99631.58;129921;1092;116826;-58
2021/07/14 08:00:17;;;;;;;8.25;6.20;;;;;;;30.05;46.85;99627.58;129988;1092;23018;-59
2021/07/14 08:02:46;;;;;;;8.78;6.05;;;;;;;30.06;46.43;99629.20;129986;1092;23155;-59
2021/07/14 08:05:15;;;;;;;8.05;5.58;;;;;;;30.06;46.90;99626.39;129927;1092;114088;-59
2021/07/14 08:07:51;;;;;;;6.43;5.68;;;;;;;30.03;46.25;99627.16;130060;1093;22634;-59
2021/07/14 08:10:20;;;;;;;7.93;5.83;;;;;;;30.01;45.71;99627.53;129903;1093;113940;-59
2021/07/14 08:12:50;;;;;;;11.15;5.90;;;;;;;29.98;46.53;99633.14;129839;1092;22608;-59
2021/07/14 08:15:20;;;;;;;6.73;6.10;;;;;;;29.97;47.34;99632.33;129924;1093;113105;-58
2021/07/14 08:17:49;;;;;;;6.85;6.25;;;;;;;29.97;47.49;99632.33;130018;1093;22590;-58
2021/07/14 08:20:18;;;;;;;9.00;5.88;;;;;;;29.98;47.06;99621.91;130000;1093;22555;-58
2021/07/14 08:22:47;;;;;;;6.93;6.25;;;;;;;29.97;47.58;99623.09;129951;1093;113893;-59
2021/07/14 08:25:16;;;;;;;8.38;7.00;;;;;;;29.97;47.96;99629.52;129964;1093;22636;-59
2021/07/14 08:27:45;;;;;;;7.73;7.03;;;;;;;29.96;47.61;99624.25;129925;1093;113620;-59
2021/07/14 08:30:19;;;;;;;10.30;6.88;;;;;;;29.97;48.05;99625.91;129995;1092;23040;-58
2021/07/14 08:32:48;;;;;;;6.90;6.20;;;;;;;29.97;47.54;99626.72;130002;1092;22652;-59
2021/07/14 08:35:17;;;;;;;69.35;9.65;;;;;;;29.96;47.10;99625.06;129694;1093;114163;-59
2021/07/14 08:37:47;;;;;;;10.88;7.43;;;;;;;29.97;47.53;99625.91;130069;1093;23625;-59
2021/07/14 08:40:16;;;;;;;8.05;6.55;;;;;;;30.00;47.59;99630.76;129918;1092;114077;-59
2021/07/14 08:42:44;;;;;;;24.48;6.68;;;;;;;30.03;47.38;99629.96;130056;1092;22566;-59
2021/07/14 08:45:16;;;;;;;7.15;5.90;;;;;;;30.07;47.61;99634.44;129667;1093;114124;-59
2021/07/14 08:47:45;;;;;;;6.85;6.15;;;;;;;30.08;46.25;99632.44;130012;1091;22586;-58
2021/07/14 08:50:19;;;;;;;6.53;5.80;;;;;;;30.06;46.08;99617.95;129783;1092;22601;-58
2021/07/14 08:52:49;;;;;;;20.60;7.10;;;;;;;30.04;46.74;99611.91;129876;1093;113928;-59
2021/07/14 08:55:19;;;;;;;7.93;6.18;;;;;;;30.06;47.11;99618.77;129839;1093;22537;-59
2021/07/14 08:57:48;;;;;;;9.40;6.43;;;;;;;30.09;46.17;99620.00;129884;1093;114629;-58
2021/07/14 09:00:20;;;;;;;12.63;6.33;;;;;;;30.12;46.58;99614.42;129973;1092;22565;-58
2021/07/14 09:02:50;;;;;;;14.05;7.18;;;;;;;30.14;46.33;99614.84;130046;1092;22566;-59
2021/07/14 09:05:19;;;;;;;9.28;6.70;;;;;;;30.15;46.03;99624.09;129931;1093;114247;-58
2021/07/14 09:07:48;;;;;;;9.93;6.43;;;;;;;30.17;45.90;99619.67;129829;1093;22526;-59
2021/07/14 09:10:17;;;;;;;10.08;6.50;;;;;;;30.16;45.33;99618.05;129676;1092;113778;-59
2021/07/14 09:12:49;;;;;;;6.80;6.10;;;;;;;30.16;45.90;99618.05;129989;1093;22639;-59
2021/07/14 09:15:21;;;;;;;14.18;6.35;;;;;;;30.17;45.22;99616.05;129693;1092;113628;-59
2021/07/14 09:17:57;;;;;;;7.45;6.43;;;;;;;30.20;45.83;99618.09;129812;1093;23109;-58
2021/07/14 09:20:28;;;;;;;14.30;6.85;;;;;;;30.23;45.46;99608.89;130066;1093;22574;-59
2021/07/14 09:23:04;;;;;;;9.25;6.48;;;;;;;30.24;44.46;99600.08;129829;1092;114334;-59
2021/07/14 09:25:44;;;;;;;10.13;6.93;;;;;;;30.25;43.87;99609.31;129901;1092;22554;-59
2021/07/14 09:28:15;;;;;;;7.60;6.63;;;;;;;30.23;44.31;99608.89;129905;1093;115062;-58
2021/07/14 09:30:46;;;;;;;7.78;6.30;;;;;;;30.22;44.59;99608.08;130046;1093;22566;-59
2021/07/14 09:33:17;;;;;;;8.75;6.73;;;;;;;30.20;44.25;99606.84;129872;1093;114122;-58
2021/07/14 09:35:47;;;;;;;8.05;6.38;;;;;;;30.17;44.10;99610.43;129976;1093;22538;-59
2021/07/14 09:38:19;;;;;;;6.88;6.28;;;;;;;30.14;44.68;99612.03;129930;1093;22589;-59
2021/07/14 09:41:00;;;;;;;9.45;6.55;;;;;;;30.12;44.17;99608.80;126649;1093;113811;-58
2021/07/14 09:43:34;;;;;;;10.38;7.13;;;;;;;30.12;45.82;99602.38;125358;1092;22806;-60
2021/07/14 09:46:16;;;;;;;17.58;6.38;;;;;;;30.17;46.10;99604.80;129917;1092;114704;-59
2021/07/14 09:48:47;;;;;;;9.45;6.05;;;;;;;30.22;45.17;99605.27;129935;1093;22645;-58
2021/07/14 09:51:21;;;;;;;8.13;6.00;;;;;;;30.27;43.88;99604.12;129878;1093;113916;-58
2021/07/14 09:53:54;;;;;;;6.43;5.93;;;;;;;30.31;43.64;99595.69;129967;1092;22834;-58
2021/07/14 09:56:27;;;;;;;7.25;6.18;;;;;;;30.35;43.54;99599.34;129998;1093;22570;-58
2021/07/14 09:59:11;;;;;;;8.70;6.63;;;;;;;30.37;43.40;99599.77;129863;1092;114913;-59
2021/07/14 10:01:50;;;;;;;7.50;6.30;;;;;;;30.38;42.88;99595.77;130022;1092;22600;-58
2021/07/14 10:04:22;;;;;;;7.58;6.75;;;;;;;30.39;42.86;99601.00;129887;1092;113824;-58
2021/07/14 10:07:11;;;;;;;;;;;;;;;30.39;43.11;99603.81;130032;1092;22601;-59
2021/07/14 10:09:40;;;;;;;17.78;6.68;;;;;;;30.42;44.79;99603.05;129895;1093;100472;-58
2021/07/14 10:12:35;;;;;;;6.73;5.95;;;;;;;30.45;45.02;99602.23;130031;1093;22567;-58
2021/07/14 10:15:13;;;;;;;12.43;6.20;;;;;;;30.51;43.95;99597.88;129754;1092;22563;-60
2021/07/14 10:17:46;;;;;;;14.98;6.33;;;;;;;30.55;44.25;99600.76;129895;1093;113719;-58
2021/07/14 10:20:37;;;;;;;8.05;5.63;;;;;;;30.58;43.19;99595.17;129765;1092;22557;-58
2021/07/14 10:23:06;;;;;;;9.38;5.45;;;;;;;30.62;42.21;99603.61;129696;1093;113825;-59
2021/07/14 10:25:38;;;;;;;10.55;6.08;;;;;;;30.66;42.29;99600.83;129712;1093;22608;-60
2021/07/14 10:28:09;;;;;;;9.50;6.50;;;;;;;30.68;42.19;99601.25;129913;1092;113978;-58
2021/07/14 10:30:40;;;;;;;13.35;5.60;;;;;;;30.69;41.77;99595.23;129984;1093;23092;-59
2021/07/14 10:33:10;;;;;;;10.73;6.35;;;;;;;30.70;43.56;99599.66;130064;1092;22566;-60
2021/07/14 10:35:42;;;;;;;8.28;6.10;;;;;;;30.72;43.76;99593.65;129652;1093;113894;-59
2021/07/14 10:38:22;;;;;;;9.43;6.45;;;;;;;30.72;42.35;99590.84;129983;1093;23723;-59
2021/07/14 10:40:52;;;;;;;8.13;6.45;;;;;;;30.72;41.88;99588.83;126427;1092;113838;-59
2021/07/14 10:43:23;;;;;;;9.83;6.85;;;;;;;30.72;41.91;99588.03;125226;1093;22783;-59
2021/07/14 10:46:02;;;;;;;6.93;6.23;;;;;;;30.71;42.97;99592.84;129742;1093;113988;-58
2021/07/14 10:48:31;;;;;;;17.13;6.55;;;;;;;30.73;42.74;99586.83;129827;1092;22542;-59
2021/07/14 10:51:00;;;;;;;8.63;5.48;;;;;;;30.73;42.25;99589.64;129994;1093;23417;-59
2021/07/14 10:53:30;;;;;;;7.88;6.23;;;;;;;30.72;42.40;99594.46;129887;1092;113706;-59
2021/07/14 10:55:58;;;;;;;6.35;5.53;;;;;;;30.73;42.71;99595.27;129792;1093;23147;-59
2021/07/14 10:58:29;;;;;;;9.48;5.70;;;;;;;30.73;42.78;99593.23;129627;1093;113814;-59
2021/07/14 11:00:58;;;;;;;8.25;5.85;;;;;;;30.75;43.01;99592.84;129797;1093;22509;-59
2021/07/14 11:03:41;;;;;;;11.33;6.63;;;;;;;30.75;42.63;99599.28;129976;1093;113739;-59
2021/07/14 11:06:14;;;;;;;7.65;6.05;;;;;;;30.73;42.61;99595.27;129715;1093;22587;-59
2021/07/14 11:08:49;;;;;;;9.13;5.98;;;;;;;30.72;42.20;99590.84;130041;1092;22550;-59
2021/07/14 11:11:37;;;;;;;6.30;5.53;;;;;;;30.71;42.75;99589.22;129602;1093;113904;-59
2021/07/14 11:14:08;;;;;;;9.38;6.13;;;;;;;30.70;42.76;99582.78;129805;1092;22561;-59
2021/07/14 11:16:38;;;;;;;7.65;5.70;;;;;;;30.72;42.98;99588.03;129853;1092;113569;-58
2021/07/14 11:19:13;;;;;;;5.85;5.18;;;;;;;30.75;43.11;99590.03;129832;1091;23052;-59
2021/07/14 11:22:02;;;;;;;6.23;5.57;;;;;;;30.78;42.18;99589.25;129853;1092;114058;-58
2021/07/14 11:24:45;;;;;;;11.90;6.08;;;;;;;30.79;42.19;99580.42;129985;1093;22559;-59
2021/07/14 11:27:25;;;;;;;12.40;6.50;;;;;;;30.80;42.21;99581.23;130009;1092;22674;-60
2021/07/14 11:30:14;;;;;;;12.53;6.25;;;;;;;30.81;43.05;99578.03;129910;1092;113604;-59
2021/07/14 11:32:43;;;;;;;7.73;6.10;;;;;;;30.82;42.41;99579.64;129891;1093;22537;-60
2021/07/14 11:35:20;;;;;;;18.70;7.35;;;;;;;30.80;43.39;99584.05;129723;1093;113717;-59
2021/07/14 11:37:52;;;;;;;21.88;7.50;;;;;;;30.75;43.71;99576.77;129977;1092;22582;-59
2021/07/14 11:40:23;;;;;;;7.93;6.43;;;;;;;30.72;43.54;99577.58;129866;1093;113929;-60
2021/07/14 11:42:59;;;;;;;21.00;7.85;;;;;;;30.71;44.14;99575.16;129976;1092;23335;-59
2021/07/14 11:45:33;;;;;;;13.93;7.13;;;;;;;30.70;43.98;99570.73;129802;1092;22535;-59
2021/07/14 11:48:10;;;;;;;7.10;6.35;;;;;;;30.72;44.02;99574.77;129675;1092;113681;-59